sensor_id;sensor_type;location;lat;lon;timestamp;P1;durP1;ratioP1;P2;durP2;ratioP2
20906;SDS011;10613;50.966;5.814;2022-07-18T00:03:01;2.50;;;2.50;;
20906;SDS011;10613;50.966;5.814;2022-07-18T00:07:37;1.00;;;1.00;;
20906;SDS011;10613;50.966;5.814;2022-07-18T00:12:10;1.50;;;1.50;;
20906;SDS011;10613;50.966;5.814;2022-07-18T00:16:28;5.00;;;5.00;;
20906;SDS011;10613;50.966;5.814;2022-07-18T00:20:38;1.50;;;1.50;;
20906;SDS011;10613;50.966;5.814;2022-07-18T00:24:48;1.00;;;1.00;;
20906;SDS011;10613;50.966;5.814;2022-07-18T00:28:55;1.75;;;1.75;;
20906;SDS011;10613;50.966;5.814;2022-07-18T00:33:04;1.00;;;1.00;;
20906;SDS011;10613;50.966;5.814;2022-07-18T00:37:18;2.00;;;2.00;;
20906;SDS011;10613;50.966;5.814;2022-07-18T00:41:25;3.00;;;3.00;;
20906;SDS011;10613;50.966;5.814;2022-07-18T00:45:32;2.00;;;2.00;;
20906;SDS011;10613;50.966;5.814;2022-07-18T00:49:39;2.00;;;2.00;;
20906;SDS011;10613;50.966;5.814;2022-07-18T00:53:48;1.50;;;1.50;;
20906;SDS011;10613;50.966;5.814;2022-07-18T00:57:57;1.00;;;1.00;;
20906;SDS011;10613;50.966;5.814;2022-07-18T01:02:05;2.00;;;2.00;;
20906;SDS011;10613;50.966;5.814;2022-07-18T01:06:12;1.75;;;1.75;;
20906;SDS011;10613;50.966;5.814;2022-07-18T01:10:19;2.75;;;2.75;;
20906;SDS011;10613;50.966;5.814;2022-07-18T01:14:26;2.00;;;2.00;;
20906;SDS011;10613;50.966;5.814;2022-07-18T01:18:33;2.25;;;2.25;;
20906;SDS011;10613;50.966;5.814;2022-07-18T01:22:40;2.00;;;2.00;;
20906;SDS011;10613;50.966;5.814;2022-07-18T01:26:48;1.75;;;1.75;;
20906;SDS011;10613;50.966;5.814;2022-07-18T01:30:55;2.00;;;2.00;;
20906;SDS011;10613;50.966;5.814;2022-07-18T01:35:03;2.00;;;2.00;;
20906;SDS011;10613;50.966;5.814;2022-07-18T01:39:11;1.00;;;1.00;;
20906;SDS011;10613;50.966;5.814;2022-07-18T01:43:18;1.00;;;1.00;;
20906;SDS011;10613;50.966;5.814;2022-07-18T01:47:25;3.50;;;3.50;;
20906;SDS011;10613;50.966;5.814;2022-07-18T01:51:39;4.50;;;3.75;;
20906;SDS011;10613;50.966;5.814;2022-07-18T01:56:30;2.75;;;2.75;;
20906;SDS011;10613;50.966;5.814;2022-07-18T02:12:23;3.00;;;3.00;;
20906;SDS011;10613;50.966;5.814;2022-07-18T02:23:02;1.00;;;1.00;;
20906;SDS011;10613;50.966;5.814;2022-07-18T02:28:17;3.00;;;3.00;;
20906;SDS011;10613;50.966;5.814;2022-07-18T02:33:37;2.00;;;2.00;;
20906;SDS011;10613;50.966;5.814;2022-07-18T02:38:50;2.50;;;2.50;;
20906;SDS011;10613;50.966;5.814;2022-07-18T02:43:44;5.75;;;5.75;;
20906;SDS011;10613;50.966;5.814;2022-07-18T02:58:17;2.00;;;2.00;;
20906;SDS011;10613;50.966;5.814;2022-07-18T03:02:32;2.50;;;2.50;;
20906;SDS011;10613;50.966;5.814;2022-07-18T03:06:41;1.00;;;1.00;;
20906;SDS011;10613;50.966;5.814;2022-07-18T03:11:48;1.75;;;1.75;;
20906;SDS011;10613;50.966;5.814;2022-07-18T03:15:57;2.00;;;2.00;;
20906;SDS011;10613;50.966;5.814;2022-07-18T03:20:05;2.25;;;2.25;;
20906;SDS011;10613;50.966;5.814;2022-07-18T03:24:13;2.75;;;2.75;;
20906;SDS011;10613;50.966;5.814;2022-07-18T03:28:46;2.00;;;2.00;;
20906;SDS011;10613;50.966;5.814;2022-07-18T03:32:52;3.00;;;2.25;;
20906;SDS011;10613;50.966;5.814;2022-07-18T03:36:59;2.25;;;2.25;;
20906;SDS011;10613;50.966;5.814;2022-07-18T03:41:06;2.50;;;2.50;;
20906;SDS011;10613;50.966;5.814;2022-07-18T03:45:13;2.00;;;2.00;;
20906;SDS011;10613;50.966;5.814;2022-07-18T03:49:20;1.00;;;1.00;;
20906;SDS011;10613;50.966;5.814;2022-07-18T03:53:27;4.50;;;2.75;;
20906;SDS011;10613;50.966;5.814;2022-07-18T03:57:41;2.50;;;2.50;;
20906;SDS011;10613;50.966;5.814;2022-07-18T04:01:48;2.75;;;2.75;;
20906;SDS011;10613;50.966;5.814;2022-07-18T04:05:55;2.75;;;2.75;;
20906;SDS011;10613;50.966;5.814;2022-07-18T04:10:03;2.00;;;2.00;;
20906;SDS011;10613;50.966;5.814;2022-07-18T04:14:10;1.50;;;1.50;;
20906;SDS011;10613;50.966;5.814;2022-07-18T04:18:17;1.00;;;1.00;;
20906;SDS011;10613;50.966;5.814;2022-07-18T04:22:24;1.75;;;1.75;;
20906;SDS011;10613;50.966;5.814;2022-07-18T04:26:31;4.50;;;4.50;;
20906;SDS011;10613;50.966;5.814;2022-07-18T04:30:39;2.75;;;2.75;;
20906;SDS011;10613;50.966;5.814;2022-07-18T04:34:46;3.25;;;3.00;;
20906;SDS011;10613;50.966;5.814;2022-07-18T04:38:53;2.00;;;2.00;;
20906;SDS011;10613;50.966;5.814;2022-07-18T04:43:00;2.75;;;2.75;;
20906;SDS011;10613;50.966;5.814;2022-07-18T04:47:07;3.00;;;3.00;;
20906;SDS011;10613;50.966;5.814;2022-07-18T04:51:15;2.75;;;2.75;;
20906;SDS011;10613;50.966;5.814;2022-07-18T04:55:23;2.50;;;2.50;;
20906;SDS011;10613;50.966;5.814;2022-07-18T04:59:30;6.00;;;6.00;;
20906;SDS011;10613;50.966;5.814;2022-07-18T05:03:44;1.25;;;1.25;;
20906;SDS011;10613;50.966;5.814;2022-07-18T05:07:54;2.00;;;2.00;;
20906;SDS011;10613;50.966;5.814;2022-07-18T05:12:01;2.00;;;2.00;;
20906;SDS011;10613;50.966;5.814;2022-07-18T05:16:08;1.75;;;1.75;;
20906;SDS011;10613;50.966;5.814;2022-07-18T05:20:40;2.50;;;2.50;;
20906;SDS011;10613;50.966;5.814;2022-07-18T05:24:49;2.00;;;2.00;;
20906;SDS011;10613;50.966;5.814;2022-07-18T05:28:59;2.00;;;2.00;;
20906;SDS011;10613;50.966;5.814;2022-07-18T05:33:26;2.25;;;2.25;;
20906;SDS011;10613;50.966;5.814;2022-07-18T05:37:39;2.00;;;2.00;;
20906;SDS011;10613;50.966;5.814;2022-07-18T05:41:46;2.50;;;2.50;;
20906;SDS011;10613;50.966;5.814;2022-07-18T05:45:53;2.00;;;2.00;;
20906;SDS011;10613;50.966;5.814;2022-07-18T05:50:00;2.00;;;2.00;;
20906;SDS011;10613;50.966;5.814;2022-07-18T05:54:07;2.00;;;2.00;;
20906;SDS011;10613;50.966;5.814;2022-07-18T05:58:23;5.50;;;5.50;;
20906;SDS011;10613;50.966;5.814;2022-07-18T06:02:30;4.50;;;4.50;;
20906;SDS011;10613;50.966;5.814;2022-07-18T06:06:37;2.00;;;2.00;;
20906;SDS011;10613;50.966;5.814;2022-07-18T06:10:44;2.00;;;2.00;;
20906;SDS011;10613;50.966;5.814;2022-07-18T06:14:53;2.00;;;2.00;;
20906;SDS011;10613;50.966;5.814;2022-07-18T06:19:00;1.50;;;1.50;;
20906;SDS011;10613;50.966;5.814;2022-07-18T06:23:08;2.00;;;2.00;;
20906;SDS011;10613;50.966;5.814;2022-07-18T06:27:16;2.25;;;2.25;;
20906;SDS011;10613;50.966;5.814;2022-07-18T06:31:23;2.00;;;2.00;;
20906;SDS011;10613;50.966;5.814;2022-07-18T06:35:30;3.00;;;3.00;;
20906;SDS011;10613;50.966;5.814;2022-07-18T06:39:37;1.00;;;1.00;;
20906;SDS011;10613;50.966;5.814;2022-07-18T06:43:44;1.50;;;1.50;;
20906;SDS011;10613;50.966;5.814;2022-07-18T06:47:52;1.00;;;1.00;;
20906;SDS011;10613;50.966;5.814;2022-07-18T06:51:59;1.75;;;1.75;;
20906;SDS011;10613;50.966;5.814;2022-07-18T06:56:06;2.00;;;2.00;;
20906;SDS011;10613;50.966;5.814;2022-07-18T07:00:14;1.00;;;1.00;;
20906;SDS011;10613;50.966;5.814;2022-07-18T07:04:23;2.25;;;2.25;;
20906;SDS011;10613;50.966;5.814;2022-07-18T07:08:33;1.25;;;1.25;;
20906;SDS011;10613;50.966;5.814;2022-07-18T07:12:47;1.00;;;1.00;;
20906;SDS011;10613;50.966;5.814;2022-07-18T07:16:55;1.00;;;1.00;;
20906;SDS011;10613;50.966;5.814;2022-07-18T07:21:01;1.00;;;1.00;;
20906;SDS011;10613;50.966;5.814;2022-07-18T07:25:08;1.75;;;1.75;;
20906;SDS011;10613;50.966;5.814;2022-07-18T07:29:15;2.00;;;2.00;;
20906;SDS011;10613;50.966;5.814;2022-07-18T07:33:22;1.00;;;1.00;;
20906;SDS011;10613;50.966;5.814;2022-07-18T08:58:32;2.00;;;2.00;;
20906;SDS011;10613;50.966;5.814;2022-07-18T09:02:46;2.25;;;1.75;;
20906;SDS011;10613;50.966;5.814;2022-07-18T09:06:53;2.00;;;2.00;;
20906;SDS011;10613;50.966;5.814;2022-07-18T09:11:01;2.00;;;2.00;;
20906;SDS011;10613;50.966;5.814;2022-07-18T09:15:09;1.00;;;1.00;;
20906;SDS011;10613;50.966;5.814;2022-07-18T09:19:21;2.25;;;2.25;;
20906;SDS011;10613;50.966;5.814;2022-07-18T09:23:29;2.25;;;2.25;;
20906;SDS011;10613;50.966;5.814;2022-07-18T09:27:37;2.00;;;2.00;;
20906;SDS011;10613;50.966;5.814;2022-07-18T09:31:48;2.00;;;2.00;;
20906;SDS011;10613;50.966;5.814;2022-07-18T09:35:55;2.00;;;2.00;;
20906;SDS011;10613;50.966;5.814;2022-07-18T09:40:18;3.00;;;3.00;;
20906;SDS011;10613;50.966;5.814;2022-07-18T09:44:26;2.00;;;2.00;;
20906;SDS011;10613;50.966;5.814;2022-07-18T09:48:33;2.00;;;2.00;;
20906;SDS011;10613;50.966;5.814;2022-07-18T09:52:40;1.75;;;1.75;;
20906;SDS011;10613;50.966;5.814;2022-07-18T09:56:47;15.25;;;15.25;;
20906;SDS011;10613;50.966;5.814;2022-07-18T10:00:55;2.00;;;2.00;;
20906;SDS011;10613;50.966;5.814;2022-07-18T10:05:02;2.00;;;2.00;;
20906;SDS011;10613;50.966;5.814;2022-07-18T10:09:09;1.50;;;1.50;;
20906;SDS011;10613;50.966;5.814;2022-07-18T10:13:17;2.00;;;2.00;;
20906;SDS011;10613;50.966;5.814;2022-07-18T10:17:25;2.00;;;2.00;;
20906;SDS011;10613;50.966;5.814;2022-07-18T10:21:32;3.00;;;3.00;;
20906;SDS011;10613;50.966;5.814;2022-07-18T10:25:39;2.75;;;2.75;;
20906;SDS011;10613;50.966;5.814;2022-07-18T10:30:06;2.00;;;2.00;;
20906;SDS011;10613;50.966;5.814;2022-07-18T10:34:13;2.50;;;2.50;;
20906;SDS011;10613;50.966;5.814;2022-07-18T10:38:20;2.75;;;2.75;;
20906;SDS011;10613;50.966;5.814;2022-07-18T10:42:28;2.00;;;2.00;;
20906;SDS011;10613;50.966;5.814;2022-07-18T10:47:01;3.00;;;3.00;;
20906;SDS011;10613;50.966;5.814;2022-07-18T10:51:14;2.00;;;2.00;;
20906;SDS011;10613;50.966;5.814;2022-07-18T10:59:38;2.00;;;2.00;;
20906;SDS011;10613;50.966;5.814;2022-07-18T11:08:30;2.00;;;2.00;;
20906;SDS011;10613;50.966;5.814;2022-07-18T11:12:38;2.00;;;2.00;;
20906;SDS011;10613;50.966;5.814;2022-07-18T11:17:03;2.00;;;2.00;;
20906;SDS011;10613;50.966;5.814;2022-07-18T11:21:17;3.00;;;3.00;;
20906;SDS011;10613;50.966;5.814;2022-07-18T11:25:25;2.75;;;2.75;;
20906;SDS011;10613;50.966;5.814;2022-07-18T11:29:39;2.00;;;2.00;;
20906;SDS011;10613;50.966;5.814;2022-07-18T11:33:47;2.00;;;2.00;;
20906;SDS011;10613;50.966;5.814;2022-07-18T11:37:54;2.00;;;2.00;;
20906;SDS011;10613;50.966;5.814;2022-07-18T11:42:02;2.75;;;2.75;;
20906;SDS011;10613;50.966;5.814;2022-07-18T11:46:11;2.25;;;2.25;;
20906;SDS011;10613;50.966;5.814;2022-07-18T11:50:26;3.00;;;3.00;;
20906;SDS011;10613;50.966;5.814;2022-07-18T11:54:39;3.00;;;3.00;;
20906;SDS011;10613;50.966;5.814;2022-07-18T11:58:53;2.25;;;2.25;;
20906;SDS011;10613;50.966;5.814;2022-07-18T12:07:18;2.50;;;2.50;;
20906;SDS011;10613;50.966;5.814;2022-07-18T12:11:30;2.00;;;2.00;;
20906;SDS011;10613;50.966;5.814;2022-07-18T12:15:38;3.25;;;3.25;;
20906;SDS011;10613;50.966;5.814;2022-07-18T12:19:46;2.00;;;2.00;;
20906;SDS011;10613;50.966;5.814;2022-07-18T12:23:53;2.00;;;2.00;;
20906;SDS011;10613;50.966;5.814;2022-07-18T12:28:13;3.00;;;3.00;;
20906;SDS011;10613;50.966;5.814;2022-07-18T12:32:23;3.50;;;3.50;;
20906;SDS011;10613;50.966;5.814;2022-07-18T12:36:33;1.50;;;1.50;;
20906;SDS011;10613;50.966;5.814;2022-07-18T12:40:53;2.00;;;2.00;;
20906;SDS011;10613;50.966;5.814;2022-07-18T12:45:03;2.00;;;2.00;;
20906;SDS011;10613;50.966;5.814;2022-07-18T12:49:10;2.00;;;2.00;;
20906;SDS011;10613;50.966;5.814;2022-07-18T12:53:18;3.00;;;3.00;;
20906;SDS011;10613;50.966;5.814;2022-07-18T12:57:32;3.00;;;3.00;;
20906;SDS011;10613;50.966;5.814;2022-07-18T13:01:39;3.25;;;3.25;;
20906;SDS011;10613;50.966;5.814;2022-07-18T13:05:46;2.00;;;2.00;;
20906;SDS011;10613;50.966;5.814;2022-07-18T13:09:54;2.00;;;2.00;;
20906;SDS011;10613;50.966;5.814;2022-07-18T13:14:01;2.00;;;2.00;;
20906;SDS011;10613;50.966;5.814;2022-07-18T13:18:08;2.00;;;2.00;;
20906;SDS011;10613;50.966;5.814;2022-07-18T13:22:16;2.50;;;2.50;;
20906;SDS011;10613;50.966;5.814;2022-07-18T13:26:22;2.00;;;2.00;;
20906;SDS011;10613;50.966;5.814;2022-07-18T13:30:29;2.00;;;2.00;;
20906;SDS011;10613;50.966;5.814;2022-07-18T13:34:36;2.00;;;2.00;;
20906;SDS011;10613;50.966;5.814;2022-07-18T13:38:43;3.00;;;3.00;;
20906;SDS011;10613;50.966;5.814;2022-07-18T13:42:50;2.25;;;2.25;;
20906;SDS011;10613;50.966;5.814;2022-07-18T13:46:57;2.00;;;2.00;;
20906;SDS011;10613;50.966;5.814;2022-07-18T13:51:05;2.00;;;2.00;;
20906;SDS011;10613;50.966;5.814;2022-07-18T13:55:12;3.00;;;3.00;;
20906;SDS011;10613;50.966;5.814;2022-07-18T13:59:19;3.00;;;3.00;;
20906;SDS011;10613;50.966;5.814;2022-07-18T14:03:34;3.25;;;3.25;;
20906;SDS011;10613;50.966;5.814;2022-07-18T14:07:42;2.00;;;2.00;;
20906;SDS011;10613;50.966;5.814;2022-07-18T14:11:49;2.25;;;2.25;;
20906;SDS011;10613;50.966;5.814;2022-07-18T14:15:56;3.00;;;2.00;;
20906;SDS011;10613;50.966;5.814;2022-07-18T14:20:03;2.00;;;2.00;;
20906;SDS011;10613;50.966;5.814;2022-07-18T14:24:12;2.00;;;2.00;;
20906;SDS011;10613;50.966;5.814;2022-07-18T14:28:19;6.00;;;6.00;;
20906;SDS011;10613;50.966;5.814;2022-07-18T14:32:27;3.00;;;3.00;;
20906;SDS011;10613;50.966;5.814;2022-07-18T14:36:34;3.00;;;3.00;;
20906;SDS011;10613;50.966;5.814;2022-07-18T14:40:41;3.50;;;3.50;;
20906;SDS011;10613;50.966;5.814;2022-07-18T14:44:48;7.00;;;5.75;;
20906;SDS011;10613;50.966;5.814;2022-07-18T14:48:55;2.00;;;2.00;;
20906;SDS011;10613;50.966;5.814;2022-07-18T14:53:02;3.25;;;3.25;;
20906;SDS011;10613;50.966;5.814;2022-07-18T14:57:16;2.00;;;2.00;;
20906;SDS011;10613;50.966;5.814;2022-07-18T15:01:30;4.75;;;4.75;;
20906;SDS011;10613;50.966;5.814;2022-07-18T15:05:38;4.00;;;4.00;;
20906;SDS011;10613;50.966;5.814;2022-07-18T15:09:45;4.00;;;4.00;;
20906;SDS011;10613;50.966;5.814;2022-07-18T15:13:52;3.00;;;3.00;;
20906;SDS011;10613;50.966;5.814;2022-07-18T15:17:59;3.00;;;3.00;;
20906;SDS011;10613;50.966;5.814;2022-07-18T15:22:06;3.00;;;3.00;;
20906;SDS011;10613;50.966;5.814;2022-07-18T15:26:13;3.50;;;3.50;;
20906;SDS011;10613;50.966;5.814;2022-07-18T15:30:20;6.00;;;6.00;;
20906;SDS011;10613;50.966;5.814;2022-07-18T15:34:27;4.00;;;4.00;;
20906;SDS011;10613;50.966;5.814;2022-07-18T15:38:34;2.25;;;2.25;;
20906;SDS011;10613;50.966;5.814;2022-07-18T15:42:41;4.00;;;4.00;;
20906;SDS011;10613;50.966;5.814;2022-07-18T15:46:48;4.25;;;3.75;;
20906;SDS011;10613;50.966;5.814;2022-07-18T15:50:55;4.00;;;4.00;;
20906;SDS011;10613;50.966;5.814;2022-07-18T15:55:02;4.50;;;4.50;;
20906;SDS011;10613;50.966;5.814;2022-07-18T15:59:16;4.00;;;4.00;;
20906;SDS011;10613;50.966;5.814;2022-07-18T16:03:23;4.00;;;3.75;;
20906;SDS011;10613;50.966;5.814;2022-07-18T16:07:30;5.50;;;5.50;;
20906;SDS011;10613;50.966;5.814;2022-07-18T16:11:37;4.00;;;4.00;;
20906;SDS011;10613;50.966;5.814;2022-07-18T16:15:46;3.50;;;3.50;;
20906;SDS011;10613;50.966;5.814;2022-07-18T16:19:53;3.00;;;3.00;;
20906;SDS011;10613;50.966;5.814;2022-07-18T16:24:02;4.00;;;3.00;;
20906;SDS011;10613;50.966;5.814;2022-07-18T16:28:08;5.00;;;4.00;;
20906;SDS011;10613;50.966;5.814;2022-07-18T16:32:15;4.00;;;4.00;;
20906;SDS011;10613;50.966;5.814;2022-07-18T16:36:22;4.00;;;4.00;;
20906;SDS011;10613;50.966;5.814;2022-07-18T16:40:29;4.50;;;3.75;;
20906;SDS011;10613;50.966;5.814;2022-07-18T16:44:36;4.00;;;4.00;;
20906;SDS011;10613;50.966;5.814;2022-07-18T16:48:43;4.25;;;4.25;;
20906;SDS011;10613;50.966;5.814;2022-07-18T16:52:50;4.00;;;4.00;;
20906;SDS011;10613;50.966;5.814;2022-07-18T16:56:57;4.00;;;4.00;;
20906;SDS011;10613;50.966;5.814;2022-07-18T17:01:05;4.00;;;4.00;;
20906;SDS011;10613;50.966;5.814;2022-07-18T17:05:35;6.25;;;6.25;;
20906;SDS011;10613;50.966;5.814;2022-07-18T17:09:42;6.00;;;5.50;;
20906;SDS011;10613;50.966;5.814;2022-07-18T17:13:49;4.25;;;4.25;;
20906;SDS011;10613;50.966;5.814;2022-07-18T17:17:56;5.75;;;5.75;;
20906;SDS011;10613;50.966;5.814;2022-07-18T17:22:06;6.50;;;6.50;;
20906;SDS011;10613;50.966;5.814;2022-07-18T17:26:12;6.50;;;4.75;;
20906;SDS011;10613;50.966;5.814;2022-07-18T17:30:19;7.50;;;7.50;;
20906;SDS011;10613;50.966;5.814;2022-07-18T17:34:26;4.00;;;4.00;;
20906;SDS011;10613;50.966;5.814;2022-07-18T17:38:33;3.00;;;3.00;;
20906;SDS011;10613;50.966;5.814;2022-07-18T17:42:41;4.25;;;4.25;;
20906;SDS011;10613;50.966;5.814;2022-07-18T17:46:50;4.25;;;4.25;;
20906;SDS011;10613;50.966;5.814;2022-07-18T17:50:57;6.00;;;6.00;;
20906;SDS011;10613;50.966;5.814;2022-07-18T17:55:06;4.00;;;4.00;;
20906;SDS011;10613;50.966;5.814;2022-07-18T17:59:12;4.25;;;4.25;;
20906;SDS011;10613;50.966;5.814;2022-07-18T18:03:19;6.00;;;6.00;;
20906;SDS011;10613;50.966;5.814;2022-07-18T18:07:27;4.00;;;4.00;;
20906;SDS011;10613;50.966;5.814;2022-07-18T18:11:33;3.00;;;3.00;;
20906;SDS011;10613;50.966;5.814;2022-07-18T18:15:40;4.00;;;3.75;;
20906;SDS011;10613;50.966;5.814;2022-07-18T18:19:47;4.75;;;4.75;;
20906;SDS011;10613;50.966;5.814;2022-07-18T18:23:54;4.00;;;4.00;;
20906;SDS011;10613;50.966;5.814;2022-07-18T18:28:05;3.75;;;3.75;;
20906;SDS011;10613;50.966;5.814;2022-07-18T18:32:12;4.00;;;3.25;;
20906;SDS011;10613;50.966;5.814;2022-07-18T18:36:18;7.00;;;7.00;;
20906;SDS011;10613;50.966;5.814;2022-07-18T18:40:25;4.00;;;3.00;;
20906;SDS011;10613;50.966;5.814;2022-07-18T18:44:32;3.25;;;3.25;;
20906;SDS011;10613;50.966;5.814;2022-07-18T18:48:39;2.75;;;2.75;;
20906;SDS011;10613;50.966;5.814;2022-07-18T18:52:46;3.75;;;3.75;;
20906;SDS011;10613;50.966;5.814;2022-07-18T18:56:53;4.75;;;4.75;;
20906;SDS011;10613;50.966;5.814;2022-07-18T19:01:07;5.25;;;4.25;;
20906;SDS011;10613;50.966;5.814;2022-07-18T19:05:22;4.75;;;4.75;;
20906;SDS011;10613;50.966;5.814;2022-07-18T19:09:29;6.25;;;6.25;;
20906;SDS011;10613;50.966;5.814;2022-07-18T19:13:36;6.50;;;5.50;;
20906;SDS011;10613;50.966;5.814;2022-07-18T19:17:43;5.00;;;5.00;;
20906;SDS011;10613;50.966;5.814;2022-07-18T19:21:50;4.00;;;4.00;;
20906;SDS011;10613;50.966;5.814;2022-07-18T19:25:58;5.00;;;5.00;;
20906;SDS011;10613;50.966;5.814;2022-07-18T19:30:11;3.00;;;3.00;;
20906;SDS011;10613;50.966;5.814;2022-07-18T19:34:19;6.50;;;6.25;;
20906;SDS011;10613;50.966;5.814;2022-07-18T19:38:26;4.00;;;4.00;;
20906;SDS011;10613;50.966;5.814;2022-07-18T19:42:33;3.25;;;3.25;;
20906;SDS011;10613;50.966;5.814;2022-07-18T19:46:40;4.00;;;4.00;;
20906;SDS011;10613;50.966;5.814;2022-07-18T19:50:47;7.00;;;5.50;;
20906;SDS011;10613;50.966;5.814;2022-07-18T19:54:54;3.75;;;3.75;;
20906;SDS011;10613;50.966;5.814;2022-07-18T19:59:01;5.00;;;5.00;;
20906;SDS011;10613;50.966;5.814;2022-07-18T20:03:08;4.00;;;3.00;;
20906;SDS011;10613;50.966;5.814;2022-07-18T20:07:15;6.00;;;6.00;;
20906;SDS011;10613;50.966;5.814;2022-07-18T20:11:22;3.25;;;3.25;;
20906;SDS011;10613;50.966;5.814;2022-07-18T20:15:29;4.00;;;3.50;;
20906;SDS011;10613;50.966;5.814;2022-07-18T20:19:38;8.00;;;7.00;;
20906;SDS011;10613;50.966;5.814;2022-07-18T20:23:45;8.00;;;7.00;;
20906;SDS011;10613;50.966;5.814;2022-07-18T20:27:52;5.00;;;5.00;;
20906;SDS011;10613;50.966;5.814;2022-07-18T20:31:59;4.25;;;4.25;;
20906;SDS011;10613;50.966;5.814;2022-07-18T20:36:06;6.00;;;6.00;;
20906;SDS011;10613;50.966;5.814;2022-07-18T20:40:13;6.25;;;4.25;;
20906;SDS011;10613;50.966;5.814;2022-07-18T20:44:21;6.25;;;6.25;;
20906;SDS011;10613;50.966;5.814;2022-07-18T20:48:28;5.75;;;5.00;;
20906;SDS011;10613;50.966;5.814;2022-07-18T20:52:35;6.00;;;5.00;;
20906;SDS011;10613;50.966;5.814;2022-07-18T20:56:42;5.00;;;5.00;;
20906;SDS011;10613;50.966;5.814;2022-07-18T21:00:49;6.00;;;6.00;;
20906;SDS011;10613;50.966;5.814;2022-07-18T21:05:04;5.75;;;5.75;;
20906;SDS011;10613;50.966;5.814;2022-07-18T21:09:14;5.25;;;5.00;;
20906;SDS011;10613;50.966;5.814;2022-07-18T21:13:23;5.00;;;5.00;;
20906;SDS011;10613;50.966;5.814;2022-07-18T21:17:37;7.00;;;6.50;;
20906;SDS011;10613;50.966;5.814;2022-07-18T21:22:05;7.25;;;7.00;;
20906;SDS011;10613;50.966;5.814;2022-07-18T21:26:55;5.25;;;5.25;;
20906;SDS011;10613;50.966;5.814;2022-07-18T21:31:08;6.00;;;6.00;;
20906;SDS011;10613;50.966;5.814;2022-07-18T21:35:37;8.00;;;7.00;;
20906;SDS011;10613;50.966;5.814;2022-07-18T21:39:47;7.00;;;7.00;;
20906;SDS011;10613;50.966;5.814;2022-07-18T21:43:58;8.00;;;8.00;;
20906;SDS011;10613;50.966;5.814;2022-07-18T21:48:26;7.25;;;7.25;;
20906;SDS011;10613;50.966;5.814;2022-07-18T21:52:34;6.50;;;6.50;;
20906;SDS011;10613;50.966;5.814;2022-07-18T21:57:11;7.00;;;7.00;;
20906;SDS011;10613;50.966;5.814;2022-07-18T22:01:25;7.25;;;7.00;;
20906;SDS011;10613;50.966;5.814;2022-07-18T22:05:33;7.75;;;7.25;;
20906;SDS011;10613;50.966;5.814;2022-07-18T22:09:59;6.50;;;6.50;;
20906;SDS011;10613;50.966;5.814;2022-07-18T22:14:32;5.75;;;5.75;;
20906;SDS011;10613;50.966;5.814;2022-07-18T22:18:40;7.00;;;7.00;;
20906;SDS011;10613;50.966;5.814;2022-07-18T22:22:47;5.25;;;5.25;;
20906;SDS011;10613;50.966;5.814;2022-07-18T22:26:54;10.25;;;8.00;;
20906;SDS011;10613;50.966;5.814;2022-07-18T22:31:02;8.00;;;6.00;;
20906;SDS011;10613;50.966;5.814;2022-07-18T22:35:09;7.00;;;7.00;;
20906;SDS011;10613;50.966;5.814;2022-07-18T22:39:16;10.00;;;10.00;;
20906;SDS011;10613;50.966;5.814;2022-07-18T22:43:24;7.00;;;6.50;;
20906;SDS011;10613;50.966;5.814;2022-07-18T22:47:31;6.50;;;6.25;;
20906;SDS011;10613;50.966;5.814;2022-07-18T22:51:38;7.00;;;7.00;;
20906;SDS011;10613;50.966;5.814;2022-07-18T22:55:46;10.00;;;10.00;;
20906;SDS011;10613;50.966;5.814;2022-07-18T22:59:53;7.75;;;7.75;;
20906;SDS011;10613;50.966;5.814;2022-07-18T23:04:03;13.75;;;12.75;;
20906;SDS011;10613;50.966;5.814;2022-07-18T23:08:11;6.50;;;6.50;;
20906;SDS011;10613;50.966;5.814;2022-07-18T23:12:18;8.00;;;8.00;;
20906;SDS011;10613;50.966;5.814;2022-07-18T23:16:26;7.25;;;6.25;;
20906;SDS011;10613;50.966;5.814;2022-07-18T23:20:38;6.75;;;6.75;;
20906;SDS011;10613;50.966;5.814;2022-07-18T23:24:45;10.00;;;10.00;;
20906;SDS011;10613;50.966;5.814;2022-07-18T23:28:52;8.25;;;7.25;;
20906;SDS011;10613;50.966;5.814;2022-07-18T23:32:59;10.25;;;10.25;;
20906;SDS011;10613;50.966;5.814;2022-07-18T23:37:07;10.00;;;8.75;;
20906;SDS011;10613;50.966;5.814;2022-07-18T23:41:16;8.25;;;8.25;;
20906;SDS011;10613;50.966;5.814;2022-07-18T23:45:26;10.25;;;7.75;;
20906;SDS011;10613;50.966;5.814;2022-07-18T23:49:34;6.50;;;5.75;;
20906;SDS011;10613;50.966;5.814;2022-07-18T23:53:41;7.50;;;7.50;;
20906;SDS011;10613;50.966;5.814;2022-07-18T23:57:48;5.00;;;5.00;;
